createdAt,value
2023-01-07T00:02:54.585Z,95504.06
2023-01-07T00:06:07.087Z,95505.06
2023-01-07T00:09:17.762Z,95502.09
2023-01-07T00:12:25.945Z,95507.03
2023-01-07T00:15:34.299Z,95496.13
2023-01-07T00:18:44.479Z,95497.94
2023-01-07T00:21:55.045Z,95483.88
2023-01-07T00:25:03.322Z,95489.00
2023-01-07T00:28:11.722Z,95491.50
2023-01-07T00:31:25.533Z,95481.34
2023-01-07T00:34:34.399Z,95485.19
2023-01-07T00:37:52.296Z,95477.25
2023-01-07T00:41:00.660Z,95477.09
2023-01-07T00:44:10.238Z,95477.75
2023-01-07T00:47:18.435Z,95478.56
2023-01-07T00:50:30.376Z,95475.44
2023-01-07T00:53:40.182Z,95478.25
2023-01-07T00:56:48.492Z,95479.91
2023-01-07T00:59:57.426Z,95473.78
2023-01-07T01:03:06.488Z,95473.78
2023-01-07T01:06:17.037Z,95474.25
2023-01-07T01:09:27.716Z,95475.44
2023-01-07T01:12:36.433Z,95488.03
2023-01-07T01:15:46.111Z,95482.75
2023-01-07T01:18:54.344Z,95485.56
2023-01-07T01:22:02.637Z,95471.66
2023-01-07T01:25:15.117Z,95468.00
2023-01-07T01:28:23.325Z,95459.06
2023-01-07T01:31:31.982Z,95464.88
2023-01-07T01:34:40.273Z,95472.31
2023-01-07T01:37:48.631Z,95468.00
2023-01-07T01:40:58.225Z,95465.84
2023-01-07T01:44:45.178Z,95463.38
2023-01-07T01:48:06.237Z,95464.19
2023-01-07T01:51:19.568Z,95462.38
2023-01-07T01:54:29.250Z,95453.25
2023-01-07T01:57:41.249Z,95450.13
2023-01-07T02:00:52.464Z,95446.34
2023-01-07T02:04:05.617Z,95443.19
2023-01-07T02:07:18.386Z,95446.66
2023-01-07T02:10:33.184Z,95448.16
2023-01-07T02:14:04.351Z,95449.31
2023-01-07T02:17:24.603Z,95444.69
2023-01-07T02:20:57.380Z,95439.56
2023-01-07T02:24:54.758Z,95430.13
2023-01-07T02:28:33.128Z,95422.84
2023-01-07T02:32:15.694Z,95421.88
2023-01-07T02:35:46.476Z,95422.19
2023-01-07T02:39:13.219Z,95427.84
2023-01-07T02:42:33.570Z,95421.53
2023-01-07T02:50:30.590Z,95411.44
2023-01-07T02:53:41.719Z,95412.78
2023-01-07T02:57:21.161Z,95399.88
2023-01-07T03:00:57.485Z,95406.47
2023-01-07T03:04:28.695Z,95404.00
2023-01-07T03:07:56.069Z,95398.84
2023-01-07T03:11:08.682Z,95392.25
2023-01-07T03:14:21.660Z,95387.31
2023-01-07T03:17:41.126Z,95391.94
2023-01-07T03:20:57.264Z,95385.66
2023-01-07T03:24:09.306Z,95383.00
2023-01-07T03:27:23.175Z,95384.66
2023-01-07T03:30:33.064Z,95369.22
2023-01-07T03:33:50.343Z,95375.28
2023-01-07T03:37:04.740Z,95378.53
2023-01-07T03:40:15.503Z,95378.84
2023-01-07T03:43:24.467Z,95375.19
2023-01-07T03:46:35.917Z,95371.06
2023-01-07T03:49:44.103Z,95369.63
2023-01-07T03:52:52.291Z,95359.31
2023-01-07T03:56:03.574Z,95363.78
2023-01-07T03:59:12.159Z,95363.47
2023-01-07T04:02:20.486Z,95352.91
2023-01-07T04:05:29.362Z,95348.06
2023-01-07T04:08:38.037Z,95343.97
2023-01-07T04:11:48.278Z,95346.94
2023-01-07T04:14:58.472Z,95331.09
2023-01-07T04:18:08.617Z,95331.72
2023-01-07T04:21:16.751Z,95327.75
2023-01-07T04:24:24.971Z,95329.03
2023-01-07T04:27:35.332Z,95317.63
2023-01-07T04:30:44.288Z,95315.78
2023-01-07T04:33:52.566Z,95318.72
2023-01-07T04:37:01.295Z,95317.03
2023-01-07T04:40:11.327Z,95309.41
2023-01-07T04:43:21.586Z,95300.78
2023-01-07T04:46:29.893Z,95300.03
2023-01-07T04:49:39.406Z,95295.38
2023-01-07T04:52:48.305Z,95289.50
2023-01-07T04:55:57.022Z,95284.69
2023-01-07T04:59:06.573Z,95287.72
2023-01-07T05:02:14.861Z,95273.94
2023-01-07T05:05:23.867Z,95272.34
2023-01-07T05:08:32.288Z,95268.84
2023-01-07T05:11:40.591Z,95262.97
2023-01-07T05:14:50.762Z,95259.66
2023-01-07T05:18:00.037Z,95258.69
2023-01-07T05:21:10.489Z,95253.63
2023-01-07T05:24:19.888Z,95251.53
2023-01-07T05:27:28.121Z,95258.09
2023-01-07T05:30:37.721Z,95254.47
2023-01-07T05:33:46.004Z,95246.56
2023-01-07T05:36:54.794Z,95236.97
2023-01-07T05:40:02.922Z,95229.50
2023-01-07T05:43:11.305Z,95231.22
2023-01-07T05:46:21.229Z,95229.56
2023-01-07T05:49:29.576Z,95231.00
2023-01-07T05:52:37.799Z,95227.44
2023-01-07T05:55:49.041Z,95219.19
2023-01-07T05:58:59.634Z,95216.38
2023-01-07T06:02:11.873Z,95212.06
2023-01-07T06:05:19.977Z,95204.34
2023-01-07T06:08:28.069Z,95213.34
2023-01-07T06:11:36.182Z,95217.09
2023-01-07T06:14:44.271Z,95216.31
2023-01-07T06:17:53.703Z,95217.38
2023-01-07T06:21:01.930Z,95214.00
2023-01-07T06:24:11.427Z,95215.78
2023-01-07T06:27:19.691Z,95214.81
2023-01-07T06:30:28.081Z,95212.84
2023-01-07T06:33:38.316Z,95216.88
2023-01-07T06:36:46.472Z,95209.16
2023-01-07T06:39:54.677Z,95206.41
2023-01-07T06:43:03.094Z,95206.31
2023-01-07T06:46:12.802Z,95194.97
2023-01-07T06:49:22.329Z,95195.84
2023-01-07T06:52:30.653Z,95188.97
2023-01-07T06:55:39.009Z,95190.75
2023-01-07T06:58:47.132Z,95187.56
2023-01-07T07:01:55.494Z,95191.28
2023-01-07T07:05:05.532Z,95192.00
2023-01-07T07:08:13.732Z,95187.06
2023-01-07T07:11:21.863Z,95187.19
2023-01-07T07:14:29.948Z,95189.25
2023-01-07T07:17:38.016Z,95175.88
2023-01-07T07:20:49.291Z,95179.59
2023-01-07T07:23:57.667Z,95179.19
2023-01-07T07:27:05.805Z,95178.59
2023-01-07T07:30:15.690Z,95180.41
2023-01-07T07:33:23.933Z,95178.47
2023-01-07T07:36:34.024Z,95177.41
2023-01-07T07:39:42.221Z,95170.75
2023-01-07T07:43:11.714Z,95171.91
2023-01-07T07:46:18.856Z,95167.03
2023-01-07T07:49:26.989Z,95168.69
2023-01-07T07:52:36.939Z,95165.63
2023-01-07T07:55:46.526Z,95164.22
2023-01-07T07:58:54.693Z,95164.50
2023-01-07T08:02:02.912Z,95161.84
2023-01-07T08:05:12.722Z,95147.16
2023-01-07T08:08:22.508Z,95148.22
2023-01-07T08:11:30.665Z,95147.63
2023-01-07T08:14:38.729Z,95142.94
2023-01-07T08:17:47.097Z,95143.69
2023-01-07T08:20:55.851Z,95131.28
2023-01-07T08:24:06.656Z,95131.38
2023-01-07T08:27:15.111Z,95126.78
2023-01-07T08:30:23.677Z,95124.63
2023-01-07T08:33:37.319Z,95125.31
2023-01-07T08:36:45.594Z,95126.72
2023-01-07T08:39:55.192Z,95115.31
2023-01-07T08:43:06.698Z,95112.66
2023-01-07T08:46:14.887Z,95107.63
2023-01-07T08:49:23.979Z,95104.53
2023-01-07T08:52:32.059Z,95107.25
2023-01-07T08:55:41.502Z,95101.91
2023-01-07T08:58:49.833Z,95095.78
2023-01-07T09:01:58.075Z,95100.09
2023-01-07T09:05:08.198Z,95087.19
2023-01-07T09:08:16.292Z,95092.22
2023-01-07T09:11:25.805Z,95085.47
2023-01-07T09:14:34.264Z,95079.13
2023-01-07T09:17:42.378Z,95084.28
2023-01-07T09:20:50.655Z,95090.84
2023-01-07T09:23:58.857Z,95087.44
2023-01-07T09:27:08.290Z,95090.63
2023-01-07T09:30:16.901Z,95083.19
2023-01-07T09:33:25.076Z,95086.19
2023-01-07T09:36:33.638Z,95087.34
2023-01-07T09:39:41.888Z,95074.81
2023-01-07T09:43:01.926Z,95068.53
2023-01-07T09:46:13.335Z,95064.88
2023-01-07T09:49:26.986Z,95067.31
2023-01-07T09:52:40.943Z,95064.50
2023-01-07T09:56:10.737Z,95062.81
2023-01-07T09:59:22.595Z,95049.28
2023-01-07T10:02:45.188Z,95048.13
2023-01-07T10:06:08.980Z,95049.19
2023-01-07T10:09:36.659Z,95033.44
2023-01-07T10:12:59.859Z,95033.66
2023-01-07T10:16:21.145Z,95022.88
2023-01-07T10:19:44.355Z,95016.34
2023-01-07T10:23:00.372Z,95007.16
2023-01-07T10:26:21.225Z,95012.34
2023-01-07T10:29:36.997Z,95001.03
2023-01-07T10:32:51.003Z,94998.97
2023-01-07T10:36:16.569Z,94983.59
2023-01-07T10:39:36.152Z,94981.19
2023-01-07T10:42:55.231Z,94970.25
2023-01-07T10:46:23.120Z,94961.41
2023-01-07T10:49:55.703Z,94964.41
2023-01-07T10:53:19.240Z,94968.06
2023-01-07T10:56:33.121Z,94964.41
2023-01-07T10:59:51.044Z,94955.91
2023-01-07T11:03:00.845Z,94948.06
2023-01-07T11:06:19.017Z,94951.34
2023-01-07T11:09:32.923Z,94940.84
2023-01-07T11:12:46.757Z,94944.50
2023-01-07T11:16:04.405Z,94939.09
2023-01-07T11:19:13.835Z,94943.00
2023-01-07T11:22:37.523Z,94940.94
2023-01-07T11:25:46.627Z,94934.97
2023-01-07T11:28:57.065Z,94941.00
2023-01-07T11:32:07.313Z,94931.84
2023-01-07T11:35:23.120Z,94913.94
2023-01-07T11:38:36.661Z,94915.75
2023-01-07T11:41:56.375Z,94904.22
2023-01-07T11:45:17.459Z,94897.53
2023-01-07T11:48:31.160Z,94898.81
2023-01-07T11:51:42.900Z,94901.00
2023-01-07T11:54:53.230Z,94885.53
2023-01-07T11:58:29.992Z,94884.09
2023-01-07T12:01:30.898Z,94878.31
2023-01-07T12:04:40.495Z,94865.97
2023-01-07T12:07:51.183Z,94861.56
2023-01-07T12:11:09.258Z,94859.19
2023-01-07T12:14:27.825Z,94853.03
2023-01-07T12:17:37.132Z,94842.25
2023-01-07T12:21:26.733Z,94843.28
2023-01-07T12:25:24.520Z,94841.75
2023-01-07T12:28:54.399Z,94827.91
2023-01-07T12:32:22.978Z,94826.97
2023-01-07T12:35:36.629Z,94813.88
2023-01-07T12:38:52.470Z,94811.72
2023-01-07T12:42:10.210Z,94811.34
2023-01-07T12:45:36.303Z,94808.19
2023-01-07T12:49:02.470Z,94812.56
2023-01-07T12:52:21.553Z,94799.53
2023-01-07T12:55:35.779Z,94784.69
2023-01-07T12:58:50.406Z,94795.78
2023-01-07T13:02:18.191Z,94805.97
2023-01-07T13:05:33.510Z,94802.94
2023-01-07T13:08:51.379Z,94801.00
2023-01-07T13:12:41.910Z,94806.41
2023-01-07T13:15:52.901Z,94795.50
2023-01-07T13:19:02.978Z,94796.03
2023-01-07T13:22:21.265Z,94802.56
2023-01-07T13:25:52.926Z,94789.84
2023-01-07T13:29:26.936Z,94792.72
2023-01-07T13:33:06.368Z,94800.06
2023-01-07T13:36:31.567Z,94801.16
2023-01-07T13:40:07.998Z,94805.75
2023-01-07T13:43:41.076Z,94813.81
2023-01-07T13:46:50.287Z,94807.63
2023-01-07T13:50:03.364Z,94807.81
2023-01-07T13:53:46.296Z,94803.13
2023-01-07T13:56:54.756Z,94795.56
2023-01-07T14:00:06.189Z,94810.59
2023-01-07T14:03:43.410Z,94806.88
2023-01-07T14:06:53.690Z,94807.47
2023-01-07T14:10:03.343Z,94802.50
2023-01-07T14:13:37.848Z,94798.88
2023-01-07T14:16:56.788Z,94805.41
2023-01-07T14:20:18.051Z,94804.81
2023-01-07T14:23:39.145Z,94804.66
2023-01-07T14:27:00.663Z,94796.88
2023-01-07T14:30:21.642Z,94803.53
2023-01-07T14:33:39.181Z,94799.81
2023-01-07T14:37:17.429Z,94806.59
2023-01-07T14:41:05.011Z,94804.53
2023-01-07T14:44:31.605Z,94802.25
2023-01-07T14:47:55.651Z,94799.41
2023-01-07T14:51:54.875Z,94797.03
2023-01-07T14:55:37.716Z,94800.38
2023-01-07T14:59:26.197Z,94801.22
2023-01-07T15:03:36.672Z,94791.06
2023-01-07T15:06:46.440Z,94790.25
2023-01-07T15:10:18.617Z,94791.16
2023-01-07T15:13:46.134Z,94795.16
2023-01-07T15:16:55.397Z,94793.31
2023-01-07T15:20:10.290Z,94799.22
2023-01-07T15:23:27.752Z,94793.03
2023-01-07T15:26:50.268Z,94792.91
2023-01-07T15:30:08.285Z,94796.72
2023-01-07T15:33:39.092Z,94782.22
2023-01-07T15:36:52.801Z,94781.47
2023-01-07T15:40:02.156Z,94779.94
2023-01-07T15:43:24.248Z,94785.31
2023-01-07T15:46:34.424Z,94786.34
2023-01-07T15:49:43.170Z,94798.50
2023-01-07T15:52:56.683Z,94795.44
2023-01-07T15:56:11.764Z,94793.50
2023-01-07T15:59:28.042Z,94809.53
2023-01-07T16:02:43.085Z,94804.78
2023-01-07T16:05:53.508Z,94806.41
2023-01-07T16:09:18.813Z,94810.53
2023-01-07T16:12:34.072Z,94811.56
2023-01-07T16:15:42.875Z,94814.69
2023-01-07T16:18:56.627Z,94811.06
2023-01-07T16:22:06.089Z,94810.38
2023-01-07T16:25:30.850Z,94811.69
2023-01-07T16:28:46.765Z,94809.03
2023-01-07T16:31:56.582Z,94808.50
2023-01-07T16:35:09.212Z,94821.81
2023-01-07T16:38:21.061Z,94811.94
2023-01-07T16:41:31.975Z,94813.56
2023-01-07T16:45:02.381Z,94811.72
2023-01-07T16:48:21.710Z,94813.84
2023-01-07T16:51:40.623Z,94809.06
2023-01-07T16:54:50.147Z,94803.28
2023-01-07T16:58:00.022Z,94809.50
2023-01-07T17:01:12.329Z,94801.56
2023-01-07T17:04:27.815Z,94802.22
2023-01-07T17:07:39.135Z,94803.34
2023-01-07T17:10:59.083Z,94806.41
2023-01-07T17:14:51.445Z,94810.91
2023-01-07T17:18:30.621Z,94819.16
2023-01-07T17:21:43.578Z,94816.16
2023-01-07T17:24:52.052Z,94818.41
2023-01-07T17:28:09.632Z,94820.84
2023-01-07T17:31:19.913Z,94816.03
2023-01-07T17:34:28.460Z,94814.63
2023-01-07T17:37:37.369Z,94801.53
2023-01-07T17:40:46.464Z,94800.94
2023-01-07T17:43:53.689Z,94807.81
2023-01-07T17:47:03.247Z,94801.69
2023-01-07T17:50:14.991Z,94807.19
2023-01-07T17:53:27.265Z,94798.06
2023-01-07T17:56:35.791Z,94804.44
2023-01-07T17:59:47.882Z,94815.28
2023-01-07T18:02:59.225Z,94827.53
2023-01-07T18:06:18.622Z,94832.22
2023-01-07T18:09:27.767Z,94834.69
2023-01-07T18:12:36.332Z,94833.13
2023-01-07T18:15:44.773Z,94829.19
2023-01-07T18:18:56.556Z,94835.19
2023-01-07T18:22:04.611Z,94832.69
2023-01-07T18:25:19.857Z,94827.19
2023-01-07T18:28:28.150Z,94821.94
2023-01-07T18:31:43.050Z,94820.41
2023-01-07T18:34:53.481Z,94816.75
2023-01-07T18:38:02.427Z,94818.81
2023-01-07T18:41:10.880Z,94823.81
2023-01-07T18:44:19.638Z,94828.63
2023-01-07T18:47:27.821Z,94825.44
2023-01-07T18:50:41.199Z,94820.19
2023-01-07T18:53:49.473Z,94819.41
2023-01-07T18:56:58.024Z,94824.28
2023-01-07T19:00:08.118Z,94821.47
2023-01-07T19:03:17.787Z,94814.13
2023-01-07T19:06:28.477Z,94813.34
2023-01-07T19:09:37.416Z,94806.38
2023-01-07T19:12:46.809Z,94814.00
2023-01-07T19:15:55.286Z,94806.16
2023-01-07T19:19:04.023Z,94808.53
2023-01-07T19:22:15.698Z,94805.75
2023-01-07T19:25:24.162Z,94805.00
2023-01-07T19:28:32.940Z,94815.00
2023-01-07T19:31:45.519Z,94814.09
2023-01-07T19:34:54.132Z,94812.44
2023-01-07T19:38:03.821Z,94820.75
2023-01-07T19:41:15.532Z,94817.59
2023-01-07T19:44:23.733Z,94809.75
2023-01-07T19:47:32.467Z,94811.31
2023-01-07T19:50:40.736Z,94811.59
2023-01-07T19:53:54.115Z,94808.00
2023-01-07T19:57:02.551Z,94802.75
2023-01-07T20:00:12.732Z,94800.00
2023-01-07T20:03:20.948Z,94804.84
2023-01-07T20:06:31.979Z,94792.72
2023-01-07T20:09:41.657Z,94795.78
2023-01-07T20:12:50.221Z,94791.00
2023-01-07T20:16:04.612Z,94788.00
2023-01-07T20:19:13.668Z,94785.75
2023-01-07T20:22:21.959Z,94770.75
2023-01-07T20:25:31.752Z,94766.88
2023-01-07T20:28:40.407Z,94771.16
2023-01-07T20:31:50.073Z,94768.44
2023-01-07T20:34:58.506Z,94774.28
2023-01-07T20:38:09.358Z,94773.22
2023-01-07T20:41:21.422Z,94776.06
2023-01-07T20:44:29.940Z,94769.78
2023-01-07T20:47:38.095Z,94763.78
2023-01-07T20:50:46.337Z,94754.94
2023-01-07T20:53:54.702Z,94739.91
2023-01-07T20:57:04.557Z,94745.69
2023-01-07T21:00:14.444Z,94745.75
2023-01-07T21:03:22.681Z,94749.97
2023-01-07T21:06:31.480Z,94738.97
2023-01-07T21:09:40.288Z,94743.75
2023-01-07T21:12:50.992Z,94733.25
2023-01-07T21:16:04.130Z,94730.06
2023-01-07T21:19:12.470Z,94733.22
2023-01-07T21:22:20.704Z,94731.88
2023-01-07T21:25:29.219Z,94741.34
2023-01-07T21:28:38.735Z,94739.06
2023-01-07T21:31:46.941Z,94726.22
2023-01-07T21:34:55.282Z,94717.84
2023-01-07T21:38:03.503Z,94716.69
2023-01-07T21:41:14.659Z,94718.97
2023-01-07T21:44:24.180Z,94704.13
2023-01-07T21:47:32.535Z,94702.53
2023-01-07T21:50:40.815Z,94694.81
2023-01-07T21:53:49.364Z,94703.66
2023-01-07T21:56:57.784Z,94696.84
2023-01-07T22:00:09.392Z,94691.97
2023-01-07T22:03:23.485Z,94682.94
2023-01-07T22:06:35.089Z,94685.28
2023-01-07T22:09:43.849Z,94685.28
2023-01-07T22:12:52.104Z,94689.50
2023-01-07T22:16:01.649Z,94688.25
2023-01-07T22:19:10.851Z,94686.38
2023-01-07T22:22:20.932Z,94697.84
2023-01-07T22:25:29.127Z,94700.78
2023-01-07T22:28:38.552Z,94692.53
2023-01-07T22:31:50.943Z,94695.50
2023-01-07T22:34:59.469Z,94694.41
2023-01-07T22:38:08.101Z,94702.78
2023-01-07T22:41:16.666Z,94688.78
2023-01-07T22:44:30.979Z,94697.75
2023-01-07T22:47:46.258Z,94695.53
2023-01-07T22:51:01.502Z,94690.81
2023-01-07T22:54:12.511Z,94682.53
2023-01-07T22:57:21.015Z,94681.28
2023-01-07T23:00:47.941Z,94685.03
2023-01-07T23:03:57.551Z,94673.25
2023-01-07T23:07:06.224Z,94670.19
2023-01-07T23:10:14.526Z,94670.03
2023-01-07T23:13:23.855Z,94672.56
2023-01-07T23:16:32.122Z,94670.84
2023-01-07T23:19:41.767Z,94656.41
2023-01-07T23:22:50.065Z,94656.00
2023-01-07T23:25:58.459Z,94657.66
2023-01-07T23:29:06.989Z,94649.94
2023-01-07T23:32:15.290Z,94649.16
2023-01-07T23:35:24.855Z,94654.34
2023-01-07T23:38:33.085Z,94641.84
2023-01-07T23:41:41.267Z,94631.97
2023-01-07T23:44:49.474Z,94638.44
2023-01-07T23:47:57.745Z,94627.59
2023-01-07T23:51:11.894Z,94623.56
2023-01-07T23:54:20.166Z,94624.00
2023-01-07T23:57:29.355Z,94622.50
